Time;durP1;ratioP1;P1;durP2;ratioP2;P2;SDS_P1;SDS_P2;PMS_P1;PMS_P2;Temp;Humidity;BMP_temperature;BMP_pressure;BME280_temperature;BME280_humidity;BME280_pressure;Samples;Min_cycle;Max_cycle;Signal;HPM_P1;HPM_P2
2023/04/28 19:41:29;;;;;;;9.43;7.60;;;;;;;;;;5120863;27;20663;-65
2023/04/28 19:43:56;;;;;;;8.70;7.60;;;;;;;;;;5097052;28;20459;-65
2023/04/28 19:46:25;;;;;;;7.70;6.73;;;;;;;;;;5104464;28;20557;-65
2023/04/28 19:48:52;;;;;;;9.37;7.67;;;;;;;;;;5101641;28;20455;-63
2023/04/28 19:51:19;;;;;;;9.67;7.90;;;;;;;;;;5100685;27;20516;-63
2023/04/28 19:53:47;;;;;;;9.90;8.63;;;;;;;;;;5118388;28;20488;-63
2023/04/28 19:56:14;;;;;;;8.70;7.80;;;;;;;;;;5115691;28;20525;-63
2023/04/28 19:58:41;;;;;;;11.43;9.07;;;;;;;;;;5117638;28;20454;-63
2023/04/28 20:01:08;;;;;;;12.77;9.07;;;;;;;;;;5116480;27;20474;-64
2023/04/28 20:03:34;;;;;;;10.80;8.47;;;;;;;;;;5116323;28;20493;-64
2023/04/28 20:06:01;;;;;;;10.17;8.63;;;;;;;;;;5116920;27;20465;-63
2023/04/28 20:08:28;;;;;;;11.30;9.30;;;;;;;;;;5116496;28;20780;-64
2023/04/28 20:10:54;;;;;;;12.37;9.40;;;;;;;;;;5116527;27;20508;-64
2023/04/28 20:13:21;;;;;;;12.57;8.97;;;;;;;;;;5117376;28;20509;-63
2023/04/28 20:15:48;;;;;;;11.87;9.90;;;;;;;;;;5116319;27;20497;-63
2023/04/28 20:18:15;;;;;;;14.17;9.40;;;;;;;;;;5116905;28;21397;-63
2023/04/28 20:20:44;;;;;;;11.83;9.70;;;;;;;;;;5116279;27;20508;-63
2023/04/28 20:23:11;;;;;;;10.00;8.90;;;;;;;;;;5117137;28;20446;-64
2023/04/28 20:25:37;;;;;;;11.13;9.73;;;;;;;;;;5115126;27;20961;-63
2023/04/28 20:28:04;;;;;;;12.63;9.37;;;;;;;;;;5108879;28;20961;-63
2023/04/28 20:30:31;;;;;;;11.90;10.10;;;;;;;;;;5116500;28;20470;-63
2023/04/28 20:33:00;;;;;;;12.07;9.90;;;;;;;;;;5116497;28;20660;-63
2023/04/28 20:35:26;;;;;;;10.30;9.17;;;;;;;;;;5116712;28;20485;-63
2023/04/28 20:37:53;;;;;;;12.20;9.70;;;;;;;;;;5115525;28;20445;-63
2023/04/28 20:40:19;;;;;;;10.03;8.77;;;;;;;;;;5115616;27;20478;-64
2023/04/28 20:42:46;;;;;;;12.40;10.77;;;;;;;;;;5116475;28;20458;-64
2023/04/28 20:45:12;;;;;;;13.20;10.47;;;;;;;;;;5116049;27;20472;-64
2023/04/28 20:47:39;;;;;;;11.20;9.93;;;;;;;;;;5115201;28;20461;-64
2023/04/28 20:50:09;;;;;;;14.20;11.90;;;;;;;;;;5113479;28;20466;-64
2023/04/28 20:52:36;;;;;;;13.53;11.30;;;;;;;;;;5102787;28;20458;-68
2023/04/28 20:55:03;;;;;;;13.17;10.90;;;;;;;;;;5101219;28;20604;-64
2023/04/28 20:57:30;;;;;;;13.60;12.00;;;;;;;;;;5102316;28;20482;-64
2023/04/28 20:59:57;;;;;;;15.30;11.90;;;;;;;;;;5102461;28;20447;-64
2023/04/28 21:02:24;;;;;;;14.30;11.60;;;;;;;;;;5101739;28;20467;-64
2023/04/28 21:04:50;;;;;;;13.87;11.90;;;;;;;;;;5108012;28;20480;-64
2023/04/28 21:07:18;;;;;;;15.27;11.87;;;;;;;;;;5103816;28;20479;-64
2023/04/28 21:09:45;;;;;;;15.27;12.50;;;;;;;;;;5099739;28;20540;-65
2023/04/28 21:12:11;;;;;;;13.90;11.40;;;;;;;;;;5101890;28;20547;-64
2023/04/28 21:14:38;;;;;;;15.67;12.73;;;;;;;;;;5102426;28;20439;-64
2023/04/28 21:17:04;;;;;;;15.90;12.27;;;;;;;;;;5102160;28;20502;-63
2023/04/28 21:19:31;;;;;;;15.90;12.13;;;;;;;;;;5101633;28;20926;-64
2023/04/28 21:21:57;;;;;;;15.47;12.30;;;;;;;;;;5102179;28;20532;-64
2023/04/28 21:24:26;;;;;;;16.60;12.73;;;;;;;;;;5102138;28;20459;-64
2023/04/28 21:26:52;;;;;;;18.60;13.50;;;;;;;;;;5105796;28;20482;-64
2023/04/28 21:29:18;;;;;;;15.40;12.20;;;;;;;;;;5101597;28;20455;-64
2023/04/28 21:31:46;;;;;;;17.20;12.87;;;;;;;;;;5100376;28;20542;-64
2023/04/28 21:34:12;;;;;;;19.73;12.93;;;;;;;;;;5101797;28;20491;-63
2023/04/28 21:36:39;;;;;;;19.10;13.67;;;;;;;;;;5101776;28;20478;-63
2023/04/28 21:39:06;;;;;;;15.07;12.93;;;;;;;;;;5101348;28;20455;-64
2023/04/28 21:41:34;;;;;;;17.20;13.97;;;;;;;;;;5101074;28;20467;-63
2023/04/28 21:44:00;;;;;;;17.17;13.37;;;;;;;;;;5102131;28;20451;-63
2023/04/28 21:46:27;;;;;;;16.30;13.47;;;;;;;;;;5101036;28;20474;-63
2023/04/28 21:48:54;;;;;;;18.23;14.23;;;;;;;;;;5100497;28;20505;-63
2023/04/28 21:51:20;;;;;;;17.43;14.17;;;;;;;;;;5098810;28;20471;-62
2023/04/28 21:53:46;;;;;;;16.20;12.20;;;;;;;;;;5101554;28;20511;-62
2023/04/28 21:56:14;;;;;;;13.27;11.53;;;;;;;;;;5100715;28;20518;-63
2023/04/28 21:58:42;;;;;;;14.10;10.43;;;;;;;;;;5101991;28;20843;-62
2023/04/28 22:01:09;;;;;;;14.63;11.73;;;;;;;;;;5101579;28;20524;-62
2023/04/28 22:03:35;;;;;;;15.20;11.20;;;;;;;;;;5099748;28;20475;-63
2023/04/28 22:06:02;;;;;;;14.63;11.00;;;;;;;;;;5101531;27;20494;-63
2023/04/28 22:08:30;;;;;;;12.60;11.30;;;;;;;;;;5100898;28;20497;-63
2023/04/28 22:10:56;;;;;;;15.70;12.30;;;;;;;;;;5100413;28;21007;-63
2023/04/28 22:13:23;;;;;;;14.90;12.20;;;;;;;;;;5101641;28;20872;-63
2023/04/28 22:15:50;;;;;;;15.87;12.03;;;;;;;;;;5099879;28;20495;-63
2023/04/28 22:18:17;;;;;;;13.80;11.73;;;;;;;;;;5101174;28;20447;-63
2023/04/28 22:20:43;;;;;;;14.63;11.47;;;;;;;;;;5099430;28;20474;-63
2023/04/28 22:23:10;;;;;;;14.73;12.30;;;;;;;;;;5101403;28;20495;-63
2023/04/28 22:25:36;;;;;;;16.43;12.80;;;;;;;;;;5100176;28;20551;-63
2023/04/28 22:28:03;;;;;;;15.83;12.30;;;;;;;;;;5100205;28;20927;-63
2023/04/28 22:30:30;;;;;;;14.50;12.43;;;;;;;;;;5100734;28;20460;-63
2023/04/28 22:32:58;;;;;;;15.03;13.00;;;;;;;;;;5100808;28;20481;-63
2023/04/28 22:35:25;;;;;;;16.67;12.70;;;;;;;;;;5100239;28;20459;-63
2023/04/28 22:37:51;;;;;;;13.67;12.00;;;;;;;;;;5101526;28;20490;-64
2023/04/28 22:40:18;;;;;;;17.67;14.07;;;;;;;;;;5100504;28;20597;-63
2023/04/28 22:42:45;;;;;;;17.17;13.13;;;;;;;;;;5101147;28;20478;-62
2023/04/28 22:45:11;;;;;;;16.00;13.23;;;;;;;;;;5101039;28;20459;-63
2023/04/28 22:47:39;;;;;;;16.13;12.53;;;;;;;;;;5099769;28;20453;-63
2023/04/28 22:50:08;;;;;;;17.47;12.73;;;;;;;;;;5096063;28;20507;-63
2023/04/28 22:52:35;;;;;;;16.73;12.70;;;;;;;;;;5102390;28;20485;-63
2023/04/28 22:55:01;;;;;;;16.00;12.60;;;;;;;;;;5101370;28;20457;-63
2023/04/28 22:57:28;;;;;;;16.80;13.20;;;;;;;;;;5099619;28;20510;-63
2023/04/28 22:59:54;;;;;;;16.97;13.20;;;;;;;;;;5100145;28;20452;-63
2023/04/28 23:02:21;;;;;;;16.70;13.70;;;;;;;;;;5103894;28;20537;-64
2023/04/28 23:04:47;;;;;;;17.10;14.60;;;;;;;;;;5101591;28;20861;-64
2023/04/28 23:07:15;;;;;;;18.67;14.23;;;;;;;;;;5099610;28;20569;-64
2023/04/28 23:09:42;;;;;;;19.77;14.90;;;;;;;;;;5099905;28;20512;-63
2023/04/28 23:12:08;;;;;;;18.87;14.90;;;;;;;;;;5099945;28;20510;-63
2023/04/28 23:14:34;;;;;;;18.87;14.67;;;;;;;;;;5105677;28;20483;-63
2023/04/28 23:17:01;;;;;;;18.03;15.67;;;;;;;;;;5099344;28;20513;-62
2023/04/28 23:19:27;;;;;;;20.23;16.00;;;;;;;;;;5099328;28;20479;-63
2023/04/28 23:21:54;;;;;;;21.37;16.10;;;;;;;;;;5101204;28;20506;-63
2023/04/28 23:24:22;;;;;;;20.90;15.90;;;;;;;;;;5101278;28;20485;-63
2023/04/28 23:26:48;;;;;;;19.10;15.70;;;;;;;;;;5100838;28;20509;-63
2023/04/28 23:29:14;;;;;;;22.93;17.23;;;;;;;;;;5101919;28;20450;-65
2023/04/28 23:31:41;;;;;;;23.87;16.77;;;;;;;;;;5100488;28;20490;-63
2023/04/28 23:34:07;;;;;;;23.37;17.60;;;;;;;;;;5101750;28;20475;-64
2023/04/28 23:36:34;;;;;;;21.80;17.13;;;;;;;;;;5100937;27;20513;-64
2023/04/28 23:39:01;;;;;;;23.57;17.67;;;;;;;;;;5100967;28;20463;-64
2023/04/28 23:41:28;;;;;;;21.67;17.83;;;;;;;;;;5100847;28;20467;-63
2023/04/28 23:43:55;;;;;;;23.80;18.23;;;;;;;;;;5101300;28;20501;-64
2023/04/28 23:46:22;;;;;;;25.03;19.80;;;;;;;;;;5100901;28;20517;-64
2023/04/28 23:48:48;;;;;;;24.07;19.90;;;;;;;;;;5100900;28;20486;-64
2023/04/28 23:51:14;;;;;;;28.77;19.60;;;;;;;;;;5100958;28;20606;-63
2023/04/28 23:53:41;;;;;;;30.57;21.40;;;;;;;;;;5100675;28;20476;-63
2023/04/28 23:56:08;;;;;;;29.30;21.83;;;;;;;;;;5106705;28;20527;-63
2023/04/28 23:58:36;;;;;;;27.23;20.87;;;;;;;;;;5108319;28;20513;-64
